sensor_id;sensor_type;location;lat;lon;timestamp;temperature;humidity
45735;DHT22;31446;49.632;8.328;2023-07-13T00:10:28;19.00;99.90
45735;DHT22;31446;49.632;8.328;2023-07-13T00:25:34;18.80;99.90
45735;DHT22;31446;49.632;8.328;2023-07-13T00:40:40;18.90;99.90
45735;DHT22;31446;49.632;8.328;2023-07-13T00:55:47;18.60;99.90
45735;DHT22;31446;49.632;8.328;2023-07-13T01:10:57;18.40;99.90
45735;DHT22;31446;49.632;8.328;2023-07-13T01:26:03;18.20;99.90
45735;DHT22;31446;49.632;8.328;2023-07-13T01:41:09;18.10;99.90
45735;DHT22;31446;49.632;8.328;2023-07-13T01:56:16;17.90;99.90
45735;DHT22;31446;49.632;8.328;2023-07-13T02:11:22;17.60;99.90
45735;DHT22;31446;49.632;8.328;2023-07-13T02:26:29;17.40;99.90
45735;DHT22;31446;49.632;8.328;2023-07-13T02:41:35;17.20;99.90
45735;DHT22;31446;49.632;8.328;2023-07-13T02:56:41;17.10;99.90
45735;DHT22;31446;49.632;8.328;2023-07-13T03:11:47;17.10;99.90
45735;DHT22;31446;49.632;8.328;2023-07-13T03:26:53;17.00;99.90
45735;DHT22;31446;49.632;8.328;2023-07-13T03:41:59;16.40;99.90
45735;DHT22;31446;49.632;8.328;2023-07-13T03:57:06;16.50;99.90
45735;DHT22;31446;49.632;8.328;2023-07-13T04:12:12;16.70;99.90
45735;DHT22;31446;49.632;8.328;2023-07-13T04:27:18;17.00;99.90
45735;DHT22;31446;49.632;8.328;2023-07-13T04:42:24;17.00;99.90
45735;DHT22;31446;49.632;8.328;2023-07-13T04:57:30;17.40;99.90
45735;DHT22;31446;49.632;8.328;2023-07-13T05:12:36;19.00;99.90
45735;DHT22;31446;49.632;8.328;2023-07-13T05:27:43;19.60;99.90
45735;DHT22;31446;49.632;8.328;2023-07-13T05:42:50;20.20;99.90
45735;DHT22;31446;49.632;8.328;2023-07-13T05:57:56;20.60;99.90
45735;DHT22;31446;49.632;8.328;2023-07-13T06:13:03;21.40;99.90
45735;DHT22;31446;49.632;8.328;2023-07-13T06:28:09;21.40;99.90
45735;DHT22;31446;49.632;8.328;2023-07-13T06:43:15;21.20;99.90
45735;DHT22;31446;49.632;8.328;2023-07-13T06:58:23;21.60;99.90
45735;DHT22;31446;49.632;8.328;2023-07-13T07:13:30;21.30;99.90
45735;DHT22;31446;49.632;8.328;2023-07-13T07:28:38;21.20;99.90
45735;DHT22;31446;49.632;8.328;2023-07-13T07:43:44;21.60;99.80
45735;DHT22;31446;49.632;8.328;2023-07-13T07:58:53;22.10;99.60
45735;DHT22;31446;49.632;8.328;2023-07-13T08:14:01;22.50;98.30
45735;DHT22;31446;49.632;8.328;2023-07-13T08:29:36;23.20;97.80
45735;DHT22;31446;49.632;8.328;2023-07-13T08:44:52;23.00;96.70
45735;DHT22;31446;49.632;8.328;2023-07-13T09:00:19;23.20;96.50
45735;DHT22;31446;49.632;8.328;2023-07-13T09:15:32;24.10;95.60
45735;DHT22;31446;49.632;8.328;2023-07-13T09:30:58;24.30;94.70
45735;DHT22;31446;49.632;8.328;2023-07-13T09:46:20;25.20;94.00
45735;DHT22;31446;49.632;8.328;2023-07-13T10:01:37;25.30;91.90
45735;DHT22;31446;49.632;8.328;2023-07-13T10:16:45;25.10;91.20
45735;DHT22;31446;49.632;8.328;2023-07-13T10:31:52;26.10;90.40
45735;DHT22;31446;49.632;8.328;2023-07-13T10:47:02;26.00;90.80
45735;DHT22;31446;49.632;8.328;2023-07-13T11:02:21;26.40;89.80
45735;DHT22;31446;49.632;8.328;2023-07-13T11:17:38;26.60;88.50
45735;DHT22;31446;49.632;8.328;2023-07-13T11:33:12;26.80;87.00
45735;DHT22;31446;49.632;8.328;2023-07-13T11:48:23;26.30;86.30
45735;DHT22;31446;49.632;8.328;2023-07-13T12:03:30;27.00;82.30
45735;DHT22;31446;49.632;8.328;2023-07-13T12:18:36;25.80;84.00
45735;DHT22;31446;49.632;8.328;2023-07-13T12:33:43;25.90;84.60
45735;DHT22;31446;49.632;8.328;2023-07-13T12:48:53;26.00;84.40
45735;DHT22;31446;49.632;8.328;2023-07-13T13:04:01;25.50;85.20
45735;DHT22;31446;49.632;8.328;2023-07-13T13:19:15;25.70;84.60
45735;DHT22;31446;49.632;8.328;2023-07-13T13:34:22;25.70;85.10
45735;DHT22;31446;49.632;8.328;2023-07-13T13:49:30;25.50;86.10
45735;DHT22;31446;49.632;8.328;2023-07-13T14:04:36;26.90;83.50
45735;DHT22;31446;49.632;8.328;2023-07-13T14:19:42;26.00;84.30
45735;DHT22;31446;49.632;8.328;2023-07-13T14:34:48;25.70;84.50
45735;DHT22;31446;49.632;8.328;2023-07-13T14:49:54;25.80;83.50
45735;DHT22;31446;49.632;8.328;2023-07-13T15:05:01;25.10;85.00
45735;DHT22;31446;49.632;8.328;2023-07-13T15:20:19;25.60;84.20
45735;DHT22;31446;49.632;8.328;2023-07-13T15:35:27;26.40;81.30
45735;DHT22;31446;49.632;8.328;2023-07-13T15:50:43;26.20;80.30
45735;DHT22;31446;49.632;8.328;2023-07-13T16:05:52;26.10;80.60
45735;DHT22;31446;49.632;8.328;2023-07-13T16:20:58;25.90;80.10
45735;DHT22;31446;49.632;8.328;2023-07-13T16:36:09;26.00;80.80
45735;DHT22;31446;49.632;8.328;2023-07-13T16:51:16;27.00;77.30
45735;DHT22;31446;49.632;8.328;2023-07-13T17:06:24;28.20;76.50
45735;DHT22;31446;49.632;8.328;2023-07-13T17:21:30;27.80;76.20
45735;DHT22;31446;49.632;8.328;2023-07-13T17:36:36;28.40;76.10
45735;DHT22;31446;49.632;8.328;2023-07-13T17:51:42;30.10;74.10
45735;DHT22;31446;49.632;8.328;2023-07-13T18:06:49;29.90;73.40
45735;DHT22;31446;49.632;8.328;2023-07-13T18:21:59;28.70;73.20
45735;DHT22;31446;49.632;8.328;2023-07-13T18:37:12;27.10;76.10
45735;DHT22;31446;49.632;8.328;2023-07-13T18:52:23;28.30;75.60
45735;DHT22;31446;49.632;8.328;2023-07-13T19:07:29;27.20;76.60
45735;DHT22;31446;49.632;8.328;2023-07-13T19:22:36;24.10;83.40
45735;DHT22;31446;49.632;8.328;2023-07-13T19:37:42;22.90;86.20
45735;DHT22;31446;49.632;8.328;2023-07-13T19:52:50;22.00;89.30
45735;DHT22;31446;49.632;8.328;2023-07-13T20:08:00;21.40;90.70
45735;DHT22;31446;49.632;8.328;2023-07-13T20:23:12;21.00;91.40
45735;DHT22;31446;49.632;8.328;2023-07-13T20:38:19;20.60;92.20
45735;DHT22;31446;49.632;8.328;2023-07-13T20:53:26;20.30;92.20
45735;DHT22;31446;49.632;8.328;2023-07-13T21:08:32;20.10;93.00
45735;DHT22;31446;49.632;8.328;2023-07-13T21:23:38;19.90;94.50
45735;DHT22;31446;49.632;8.328;2023-07-13T21:38:45;19.90;95.30
45735;DHT22;31446;49.632;8.328;2023-07-13T21:53:53;19.90;95.00
45735;DHT22;31446;49.632;8.328;2023-07-13T22:08:59;19.80;95.40
45735;DHT22;31446;49.632;8.328;2023-07-13T22:24:13;19.80;96.10
45735;DHT22;31446;49.632;8.328;2023-07-13T22:39:23;19.80;96.00
45735;DHT22;31446;49.632;8.328;2023-07-13T22:54:32;19.70;97.10
45735;DHT22;31446;49.632;8.328;2023-07-13T23:09:38;19.60;97.40
45735;DHT22;31446;49.632;8.328;2023-07-13T23:24:45;19.60;97.70
45735;DHT22;31446;49.632;8.328;2023-07-13T23:39:52;19.40;97.70
45735;DHT22;31446;49.632;8.328;2023-07-13T23:54:58;19.40;98.10
